Time;durP1;ratioP1;P1;durP2;ratioP2;P2;SDS_P1;SDS_P2;PMS_P1;PMS_P2;Temp;Humidity;BMP_temperature;BMP_pressure;BME280_temperature;BME280_humidity;BME280_pressure;Samples;Min_cycle;Max_cycle;Signal;HPM_P1;HPM_P2
2022/06/06 00:01:41;;;;;;;99.53;41.78;;;;;;;;;;5032269;28;20033;-62
2022/06/06 00:04:06;;;;;;;94.43;39.65;;;;;;;;;;5030746;28;20390;-62
2022/06/06 00:06:31;;;;;;;91.40;40.78;;;;;;;;;;5032105;28;20037;-62
2022/06/06 00:09:00;;;;;;;88.53;39.70;;;;;;;;;;5031400;28;20048;-62
2022/06/06 00:11:25;;;;;;;89.00;40.13;;;;;;;;;;5031209;28;20117;-63
2022/06/06 00:13:51;;;;;;;97.40;43.45;;;;;;;;;;5031460;28;20108;-62
2022/06/06 00:16:16;;;;;;;97.28;39.25;;;;;;;;;;5017315;28;20057;-62
2022/06/06 00:18:42;;;;;;;124.53;48.33;;;;;;;;;;5031852;28;20471;-63
2022/06/06 00:21:11;;;;;;;104.25;39.85;;;;;;;;;;5031213;28;20079;-62
2022/06/06 00:23:37;;;;;;;134.40;49.22;;;;;;;;;;5029260;28;20025;-62
2022/06/06 00:26:08;;;;;;;146.45;48.58;;;;;;;;;;5024394;28;20080;-62
2022/06/06 00:28:38;;;;;;;135.23;44.47;;;;;;;;;;5031170;28;20108;-63
2022/06/06 00:36:34;;;;;;;158.20;54.10;;;;;;;;;;5032390;28;20068;-62
2022/06/06 00:39:00;;;;;;;148.30;48.67;;;;;;;;;;5026843;28;20046;-62
2022/06/06 00:41:26;;;;;;;142.77;46.97;;;;;;;;;;5019615;28;20267;-62
2022/06/06 00:44:09;;;;;;;143.05;48.00;;;;;;;;;;5026341;28;20521;-62
2022/06/06 00:46:39;;;;;;;146.48;50.80;;;;;;;;;;5029840;28;20025;-62
2022/06/06 00:49:07;;;;;;;164.23;55.38;;;;;;;;;;5030738;28;20588;-62
2022/06/06 00:51:33;;;;;;;154.68;50.28;;;;;;;;;;5032096;28;20382;-62
2022/06/06 00:53:58;;;;;;;143.20;50.30;;;;;;;;;;5011393;28;20033;-62
2022/06/06 00:56:31;;;;;;;138.23;48.80;;;;;;;;;;5013388;28;20629;-63
2022/06/06 00:59:01;;;;;;;141.07;48.58;;;;;;;;;;5030175;28;20033;-62
2022/06/06 01:01:27;;;;;;;121.30;42.83;;;;;;;;;;5014143;28;20213;-63
2022/06/06 01:03:57;;;;;;;147.05;50.35;;;;;;;;;;5029302;28;20041;-63
2022/06/06 01:06:26;;;;;;;152.82;51.42;;;;;;;;;;5030100;28;20490;-63
2022/06/06 01:08:52;;;;;;;107.38;40.22;;;;;;;;;;5029120;28;20037;-64
2022/06/06 01:11:18;;;;;;;113.72;40.42;;;;;;;;;;5032191;28;20041;-62
2022/06/06 01:13:56;;;;;;;77.65;30.63;;;;;;;;;;5031223;28;20079;-63
2022/06/06 01:16:51;;;;;;;102.97;37.83;;;;;;;;;;5012014;28;20026;-63
2022/06/06 01:20:02;;;;;;;97.35;37.42;;;;;;;;;;5008067;28;20095;-62
2022/06/06 01:22:57;;;;;;;84.75;34.28;;;;;;;;;;4996332;28;20037;-63
2022/06/06 01:25:39;;;;;;;91.28;34.42;;;;;;;;;;5013656;28;20390;-63
2022/06/06 01:28:30;;;;;;;82.38;33.63;;;;;;;;;;5031475;28;20037;-64
2022/06/06 01:30:58;;;;;;;83.72;31.65;;;;;;;;;;5029331;28;20030;-65
2022/06/06 01:33:23;;;;;;;59.95;25.35;;;;;;;;;;5025445;28;20045;-65
2022/06/06 01:35:52;;;;;;;72.75;33.33;;;;;;;;;;5012915;28;20037;-63
2022/06/06 01:38:22;;;;;;;62.40;28.77;;;;;;;;;;5030379;28;20111;-63
2022/06/06 01:41:01;;;;;;;61.90;30.50;;;;;;;;;;5018131;28;20453;-63
2022/06/06 01:43:34;;;;;;;48.72;22.73;;;;;;;;;;5028598;28;20067;-63
2022/06/06 01:46:11;;;;;;;58.35;25.58;;;;;;;;;;5032031;28;20029;-63
2022/06/06 01:48:39;;;;;;;56.90;25.77;;;;;;;;;;5029497;28;20029;-63
2022/06/06 01:51:31;;;;;;;57.35;25.33;;;;;;;;;;5024793;28;20034;-62
2022/06/06 01:53:57;;;;;;;61.85;27.58;;;;;;;;;;5018650;28;20445;-64
2022/06/06 01:56:32;;;;;;;55.97;27.35;;;;;;;;;;5029310;28;20106;-62
2022/06/06 01:58:58;;;;;;;64.43;29.90;;;;;;;;;;5032047;28;20041;-63
2022/06/06 02:01:23;;;;;;;67.40;30.00;;;;;;;;;;5012338;28;20474;-63
2022/06/06 02:03:49;;;;;;;66.13;31.13;;;;;;;;;;5024834;28;20675;-63
2022/06/06 02:06:14;;;;;;;66.68;30.75;;;;;;;;;;5030180;28;20113;-63
2022/06/06 02:08:42;;;;;;;74.05;32.20;;;;;;;;;;5029511;28;20044;-63
2022/06/06 02:11:09;;;;;;;69.82;31.98;;;;;;;;;;5031735;28;20064;-63
2022/06/06 02:13:34;;;;;;;71.55;31.73;;;;;;;;;;5029442;28;20117;-62
2022/06/06 02:16:00;;;;;;;80.75;34.30;;;;;;;;;;5028483;28;20175;-63
2022/06/06 02:18:26;;;;;;;77.13;35.05;;;;;;;;;;5031979;28;20025;-63
2022/06/06 02:20:51;;;;;;;75.57;34.15;;;;;;;;;;5026617;28;20118;-63
2022/06/06 02:23:17;;;;;;;75.07;33.97;;;;;;;;;;5029757;28;20508;-63
2022/06/06 02:25:43;;;;;;;81.65;35.80;;;;;;;;;;5030085;28;20168;-64
2022/06/06 02:28:08;;;;;;;85.18;35.28;;;;;;;;;;5030651;28;20038;-64
2022/06/06 02:30:36;;;;;;;78.50;33.65;;;;;;;;;;5028287;28;20132;-63
2022/06/06 02:33:02;;;;;;;76.32;31.48;;;;;;;;;;5029726;28;20039;-64
2022/06/06 02:35:34;;;;;;;73.13;30.90;;;;;;;;;;5028460;28;20033;-63
2022/06/06 02:37:59;;;;;;;66.60;28.20;;;;;;;;;;5025341;28;20029;-63
2022/06/06 02:40:27;;;;;;;66.05;28.98;;;;;;;;;;5027942;28;20432;-63
2022/06/06 02:42:54;;;;;;;69.47;29.55;;;;;;;;;;5031027;28;20060;-63
2022/06/06 02:45:19;;;;;;;78.65;30.17;;;;;;;;;;5031877;28;20033;-63
2022/06/06 02:47:50;;;;;;;78.85;31.60;;;;;;;;;;5033829;28;20033;-64
2022/06/06 02:50:18;;;;;;;80.18;30.92;;;;;;;;;;5016147;28;20458;-63
2022/06/06 02:52:44;;;;;;;76.50;29.02;;;;;;;;;;5026521;28;20056;-64
2022/06/06 02:55:11;;;;;;;82.15;30.60;;;;;;;;;;5034953;28;20049;-64
2022/06/06 02:57:42;;;;;;;100.68;33.38;;;;;;;;;;5015957;28;20029;-63
2022/06/06 03:00:10;;;;;;;93.07;32.88;;;;;;;;;;5034226;28;20055;-62
2022/06/06 03:02:36;;;;;;;111.55;34.53;;;;;;;;;;5031132;28;20076;-62
2022/06/06 03:05:06;;;;;;;103.00;33.67;;;;;;;;;;5035050;28;20064;-63
2022/06/06 03:07:53;;;;;;;109.90;34.67;;;;;;;;;;5032672;28;20037;-63
2022/06/06 03:10:46;;;;;;;109.13;34.22;;;;;;;;;;5025732;28;20056;-62
2022/06/06 03:13:20;;;;;;;104.75;33.00;;;;;;;;;;5032731;28;20044;-62
2022/06/06 03:22:20;;;;;;;115.28;34.13;;;;;;;;;;5032780;28;20145;-62
2022/06/06 03:24:58;;;;;;;117.22;34.03;;;;;;;;;;5031804;28;20079;-63
2022/06/06 03:27:48;;;;;;;103.25;33.08;;;;;;;;;;5031183;28;20052;-63
2022/06/06 03:30:22;;;;;;;98.40;31.88;;;;;;;;;;5033795;28;20047;-63
2022/06/06 03:32:57;;;;;;;104.03;34.85;;;;;;;;;;5031836;28;20041;-64
2022/06/06 03:35:49;;;;;;;110.88;34.10;;;;;;;;;;5031688;28;20064;-63
2022/06/06 03:38:30;;;;;;;106.15;33.10;;;;;;;;;;5033129;28;20044;-63
2022/06/06 03:41:18;;;;;;;106.68;31.98;;;;;;;;;;5027925;28;20164;-63
2022/06/06 03:44:17;;;;;;;109.38;32.90;;;;;;;;;;5014313;28;20092;-63
2022/06/06 03:46:59;;;;;;;92.28;29.73;;;;;;;;;;5030111;28;20036;-63
2022/06/06 03:49:28;;;;;;;93.35;30.15;;;;;;;;;;5026176;28;20045;-63
2022/06/06 03:52:39;;;;;;;92.45;30.73;;;;;;;;;;5031962;28;20094;-63
2022/06/06 03:55:04;;;;;;;;;;;;;;;;;;4966969;28;20048;-62
2022/06/06 03:57:32;;;;;;;92.10;28.52;;;;;;;;;;5019222;28;19913;-63
2022/06/06 04:00:06;;;;;;;93.07;28.80;;;;;;;;;;5033834;28;20099;-63
2022/06/06 04:02:34;;;;;;;96.93;30.27;;;;;;;;;;5032798;28;20116;-63
2022/06/06 04:05:02;;;;;;;89.70;29.52;;;;;;;;;;5033016;28;20112;-63
2022/06/06 04:07:28;;;;;;;90.93;29.58;;;;;;;;;;5031177;28;20025;-63
2022/06/06 04:09:53;;;;;;;84.75;30.42;;;;;;;;;;5030932;28;20521;-64
2022/06/06 04:12:35;;;;;;;87.50;28.48;;;;;;;;;;5032855;28;20025;-62
2022/06/06 04:15:21;;;;;;;70.18;25.55;;;;;;;;;;5034107;28;20055;-63
2022/06/06 04:18:00;;;;;;;73.53;26.75;;;;;;;;;;5020050;28;20071;-64
2022/06/06 04:20:46;;;;;;;66.80;26.25;;;;;;;;;;5029031;28;20030;-63
2022/06/06 04:23:41;;;;;;;63.80;25.48;;;;;;;;;;5033207;28;20175;-63
2022/06/06 04:26:10;;;;;;;59.60;23.38;;;;;;;;;;5014864;28;20103;-64
2022/06/06 04:28:50;;;;;;;59.80;23.65;;;;;;;;;;5032727;28;20456;-63
2022/06/06 04:31:46;;;;;;;46.53;19.75;;;;;;;;;;5023468;28;20506;-63
2022/06/06 04:34:37;;;;;;;50.42;20.45;;;;;;;;;;5032175;28;20173;-63
2022/06/06 04:37:13;;;;;;;42.78;19.75;;;;;;;;;;5033595;28;20036;-63
2022/06/06 04:40:00;;;;;;;48.53;20.40;;;;;;;;;;5030225;28;20029;-65
2022/06/06 04:42:38;;;;;;;40.05;19.38;;;;;;;;;;5031028;28;20116;-64
2022/06/06 04:45:41;;;;;;;36.95;18.48;;;;;;;;;;5031706;28;20037;-63
2022/06/06 04:48:07;;;;;;;42.17;18.85;;;;;;;;;;5016495;28;20116;-65
2022/06/06 04:50:33;;;;;;;37.80;18.02;;;;;;;;;;5030386;28;20371;-63
2022/06/06 04:53:08;;;;;;;35.17;17.30;;;;;;;;;;5030303;28;20584;-64
2022/06/06 04:55:36;;;;;;;32.88;16.52;;;;;;;;;;5030998;28;20049;-64
2022/06/06 04:58:03;;;;;;;30.73;15.27;;;;;;;;;;5030041;28;20034;-64
2022/06/06 05:00:33;;;;;;;26.05;13.73;;;;;;;;;;5032042;28;20466;-64
2022/06/06 05:02:58;;;;;;;29.75;13.77;;;;;;;;;;5031381;28;20193;-64
2022/06/06 05:05:27;;;;;;;27.48;14.45;;;;;;;;;;5032346;28;20459;-64
2022/06/06 05:07:56;;;;;;;23.15;13.10;;;;;;;;;;5030389;28;20040;-64
2022/06/06 05:10:24;;;;;;;22.92;13.20;;;;;;;;;;5031256;28;20112;-63
2022/06/06 05:13:18;;;;;;;24.92;13.65;;;;;;;;;;5031847;28;20092;-65
2022/06/06 05:16:08;;;;;;;19.77;11.27;;;;;;;;;;5031162;28;20033;-64
2022/06/06 05:19:00;;;;;;;20.38;11.98;;;;;;;;;;5034428;28;20135;-64
2022/06/06 05:21:44;;;;;;;16.95;10.32;;;;;;;;;;5011996;28;20088;-64
2022/06/06 05:24:38;;;;;;;21.13;10.77;;;;;;;;;;5031995;28;20378;-64
2022/06/06 05:27:25;;;;;;;17.23;9.85;;;;;;;;;;5018688;28;20478;-64
2022/06/06 05:30:22;;;;;;;15.82;8.60;;;;;;;;;;5031820;28;20474;-64
2022/06/06 05:33:14;;;;;;;16.23;9.10;;;;;;;;;;5005686;28;20449;-64
2022/06/06 05:36:17;;;;;;;13.23;7.45;;;;;;;;;;5022303;28;20545;-64
2022/06/06 05:39:00;;;;;;;15.75;9.15;;;;;;;;;;5010309;28;20758;-63
2022/06/06 05:41:50;;;;;;;12.13;7.60;;;;;;;;;;5008741;28;20042;-63
2022/06/06 05:44:21;;;;;;;12.80;7.15;;;;;;;;;;5027034;28;20034;-64
2022/06/06 05:47:00;;;;;;;12.95;6.88;;;;;;;;;;5030489;28;20034;-64
2022/06/06 05:49:32;;;;;;;11.98;6.90;;;;;;;;;;5027275;28;20038;-64
2022/06/06 05:52:00;;;;;;;12.13;6.45;;;;;;;;;;5029162;28;20389;-62
2022/06/06 05:54:50;;;;;;;11.43;6.72;;;;;;;;;;5037854;28;20465;-59
2022/06/06 05:57:29;;;;;;;10.88;6.50;;;;;;;;;;5011013;28;20478;-57
2022/06/06 06:00:09;;;;;;;11.95;6.60;;;;;;;;;;5011857;28;20026;-58
2022/06/06 06:02:59;;;;;;;12.88;7.43;;;;;;;;;;5009079;28;20390;-58
2022/06/06 06:05:55;;;;;;;13.05;7.30;;;;;;;;;;5011573;28;20192;-64
2022/06/06 06:08:53;;;;;;;13.57;7.15;;;;;;;;;;5010061;28;20112;-64
2022/06/06 06:11:18;;;;;;;12.95;7.13;;;;;;;;;;4984615;28;20050;-64
2022/06/06 06:13:49;;;;;;;12.73;7.45;;;;;;;;;;5010402;28;20056;-65
2022/06/06 06:16:17;;;;;;;12.55;7.28;;;;;;;;;;5010650;28;20026;-64
2022/06/06 06:18:54;;;;;;;12.75;7.55;;;;;;;;;;5010759;28;20059;-63
2022/06/06 06:21:23;;;;;;;12.02;7.82;;;;;;;;;;5010181;28;20432;-64
2022/06/06 06:23:56;;;;;;;11.05;6.72;;;;;;;;;;5011237;28;20041;-63
2022/06/06 06:26:22;;;;;;;12.50;7.55;;;;;;;;;;5010584;28;20096;-63
2022/06/06 06:28:49;;;;;;;11.68;7.00;;;;;;;;;;5009364;28;20514;-62
2022/06/06 06:31:23;;;;;;;11.55;6.68;;;;;;;;;;5010442;28;20486;-63
2022/06/06 06:34:13;;;;;;;11.52;5.50;;;;;;;;;;5011638;28;20049;-62
2022/06/06 06:36:48;;;;;;;8.98;6.05;;;;;;;;;;5009885;28;20026;-62
2022/06/06 06:39:17;;;;;;;9.15;5.85;;;;;;;;;;5010669;28;20082;-62
2022/06/06 06:42:11;;;;;;;11.73;5.60;;;;;;;;;;5009588;28;20379;-62
2022/06/06 06:44:46;;;;;;;9.32;5.40;;;;;;;;;;5011143;28;20033;-61
2022/06/06 06:47:25;;;;;;;9.77;5.90;;;;;;;;;;5009210;28;20113;-62
2022/06/06 06:50:15;;;;;;;7.90;5.25;;;;;;;;;;4989752;28;20381;-61
2022/06/06 06:52:46;;;;;;;9.13;5.28;;;;;;;;;;5008820;28;20038;-62
2022/06/06 06:55:33;;;;;;;8.98;5.30;;;;;;;;;;5012769;28;20049;-62
2022/06/06 06:58:27;;;;;;;8.77;5.30;;;;;;;;;;5031358;28;20042;-61
2022/06/06 07:00:56;;;;;;;11.00;5.30;;;;;;;;;;5030527;28;20171;-61
2022/06/06 07:09:56;;;;;;;7.65;5.53;;;;;;;;;;5027866;28;20088;-61
2022/06/06 07:12:27;;;;;;;7.63;5.22;;;;;;;;;;5027293;28;20053;-75
2022/06/06 07:15:13;;;;;;;10.35;5.70;;;;;;;;;;5011215;28;20064;-62
2022/06/06 07:17:47;;;;;;;8.73;4.88;;;;;;;;;;5029021;28;20041;-61
2022/06/06 07:20:15;;;;;;;7.72;5.00;;;;;;;;;;5031331;28;20030;-61
2022/06/06 07:22:59;;;;;;;7.65;5.13;;;;;;;;;;5029833;28;20112;-62
2022/06/06 07:25:39;;;;;;;8.95;4.32;;;;;;;;;;5029351;28;20033;-61
2022/06/06 07:28:07;;;;;;;8.85;5.03;;;;;;;;;;5030582;28;20037;-62
2022/06/06 07:30:38;;;;;;;7.72;4.03;;;;;;;;;;5027479;28;20042;-62
2022/06/06 07:33:42;;;;;;;6.78;3.80;;;;;;;;;;5030834;28;20040;-61
2022/06/06 07:36:18;;;;;;;5.80;4.10;;;;;;;;;;5029085;28;20048;-61
2022/06/06 07:38:46;;;;;;;7.85;4.60;;;;;;;;;;5031935;28;20025;-61
2022/06/06 07:41:40;;;;;;;6.40;3.50;;;;;;;;;;5033594;28;20159;-61
2022/06/06 07:44:34;;;;;;;11.20;3.60;;;;;;;;;;5028507;28;20612;-61
2022/06/06 07:47:13;;;;;;;6.53;3.38;;;;;;;;;;5032014;28;20390;-61
2022/06/06 07:49:55;;;;;;;7.40;3.17;;;;;;;;;;5032000;28;20116;-61
2022/06/06 07:52:42;;;;;;;5.95;3.50;;;;;;;;;;5032320;28;20037;-61
2022/06/06 07:55:24;;;;;;;7.93;3.55;;;;;;;;;;5032572;28;20480;-61
2022/06/06 07:58:20;;;;;;;6.03;3.40;;;;;;;;;;5031948;28;20115;-61
2022/06/06 08:00:55;;;;;;;6.65;4.03;;;;;;;;;;5028476;28;20044;-62
2022/06/06 08:03:37;;;;;;;6.65;3.70;;;;;;;;;;5032224;28;20026;-62
2022/06/06 08:06:23;;;;;;;4.38;2.72;;;;;;;;;;5034226;28;20029;-64
2022/06/06 08:09:01;;;;;;;4.22;2.42;;;;;;;;;;5027846;28;20099;-62
2022/06/06 08:11:41;;;;;;;5.18;3.08;;;;;;;;;;5021177;28;20088;-62
2022/06/06 08:14:38;;;;;;;6.78;3.33;;;;;;;;;;5007592;28;20433;-66
2022/06/06 08:17:28;;;;;;;5.57;3.30;;;;;;;;;;5018989;28;20067;-61
2022/06/06 08:20:20;;;;;;;5.07;3.20;;;;;;;;;;5030418;28;20599;-61
2022/06/06 08:22:46;;;;;;;5.75;3.55;;;;;;;;;;5023341;28;20040;-61
2022/06/06 08:25:15;;;;;;;5.50;2.70;;;;;;;;;;5031390;28;20112;-61
2022/06/06 08:27:45;;;;;;;4.53;2.88;;;;;;;;;;5031256;28;20095;-61
2022/06/06 08:30:12;;;;;;;4.25;2.80;;;;;;;;;;5032467;28;20033;-62
2022/06/06 08:32:37;;;;;;;4.13;2.50;;;;;;;;;;5031174;28;20044;-61
2022/06/06 08:35:03;;;;;;;4.07;2.53;;;;;;;;;;5014023;28;20033;-62
2022/06/06 08:37:50;;;;;;;4.40;2.40;;;;;;;;;;5029349;28;20466;-61
2022/06/06 08:40:50;;;;;;;3.85;1.70;;;;;;;;;;5028141;28;20108;-65
2022/06/06 08:43:38;;;;;;;5.20;2.20;;;;;;;;;;5026376;28;20065;-61
2022/06/06 08:46:21;;;;;;;3.55;1.70;;;;;;;;;;5028508;28;20073;-61
2022/06/06 08:49:02;;;;;;;2.75;1.90;;;;;;;;;;5029438;28;20021;-62
2022/06/06 08:51:27;;;;;;;;;;;;;;;;;;5015608;28;20373;-61
2022/06/06 08:54:30;;;;;;;4.18;1.73;;;;;;;;;;5014869;28;19905;-62
2022/06/06 08:57:21;;;;;;;4.00;1.90;;;;;;;;;;5032072;28;20375;-62
2022/06/06 09:00:18;;;;;;;3.63;2.05;;;;;;;;;;5032174;28;20026;-61
2022/06/06 09:03:01;;;;;;;2.50;2.00;;;;;;;;;;5031986;28;20026;-62
2022/06/06 09:05:53;;;;;;;3.05;1.70;;;;;;;;;;5033391;28;20029;-61
2022/06/06 09:08:41;;;;;;;3.08;1.92;;;;;;;;;;5032847;28;20072;-61
2022/06/06 09:11:52;;;;;;;3.05;1.90;;;;;;;;;;5025095;28;20032;-61
2022/06/06 09:14:42;;;;;;;4.07;2.05;;;;;;;;;;5016883;28;20498;-61
2022/06/06 09:17:32;;;;;;;3.05;1.58;;;;;;;;;;5032616;28;20112;-61
2022/06/06 09:20:30;;;;;;;2.72;1.95;;;;;;;;;;5031940;28;20056;-61
2022/06/06 09:23:26;;;;;;;3.53;1.70;;;;;;;;;;5032052;28;20056;-61
2022/06/06 09:25:59;;;;;;;4.13;2.10;;;;;;;;;;5031629;28;20029;-61
2022/06/06 09:28:58;;;;;;;2.90;1.63;;;;;;;;;;5032406;28;20455;-62
2022/06/06 09:31:30;;;;;;;4.00;1.77;;;;;;;;;;5032029;28;20104;-60
2022/06/06 09:33:58;;;;;;;3.70;1.92;;;;;;;;;;5031499;28;20083;-60
2022/06/06 09:36:49;;;;;;;2.53;1.70;;;;;;;;;;5014631;28;20470;-61
2022/06/06 09:39:44;;;;;;;3.70;1.80;;;;;;;;;;5032795;28;20030;-60
2022/06/06 09:42:12;;;;;;;2.80;1.65;;;;;;;;;;5024943;28;20028;-60
2022/06/06 09:44:57;;;;;;;3.90;1.70;;;;;;;;;;5031284;28;20033;-60
2022/06/06 09:47:56;;;;;;;5.03;1.75;;;;;;;;;;5014547;28;20406;-60
2022/06/06 09:50:49;;;;;;;3.63;1.80;;;;;;;;;;5040263;28;20130;-60
2022/06/06 09:53:43;;;;;;;3.08;1.67;;;;;;;;;;5028687;28;20500;-60
2022/06/06 10:00:20;;;;;;;2.40;1.70;;;;;;;;;;5003634;28;20040;-60
2022/06/06 10:03:05;;;;;;;4.07;1.70;;;;;;;;;;5029566;28;20025;-60
2022/06/06 10:06:08;;;;;;;2.75;1.80;;;;;;;;;;5031254;28;20087;-59
2022/06/06 10:08:48;;;;;;;2.72;1.50;;;;;;;;;;5030909;28;20498;-59
2022/06/06 10:11:22;;;;;;;2.58;1.30;;;;;;;;;;5031142;28;20037;-60
2022/06/06 10:14:23;;;;;;;2.67;1.60;;;;;;;;;;5021686;28;20029;-61
2022/06/06 10:17:12;;;;;;;3.00;1.52;;;;;;;;;;5019800;28;20071;-59
2022/06/06 10:19:57;;;;;;;1.85;1.38;;;;;;;;;;5030070;28;20033;-59
2022/06/06 10:22:34;;;;;;;1.85;1.52;;;;;;;;;;5030754;28;20072;-59
2022/06/06 10:25:18;;;;;;;2.85;1.40;;;;;;;;;;5030243;28;20044;-60
2022/06/06 10:27:58;;;;;;;1.67;1.40;;;;;;;;;;5013220;28;20037;-59
2022/06/06 10:30:30;;;;;;;3.43;1.30;;;;;;;;;;5031742;28;20052;-59
2022/06/06 10:33:27;;;;;;;2.00;1.20;;;;;;;;;;5029530;28;20033;-59
2022/06/06 10:36:30;;;;;;;4.18;1.50;;;;;;;;;;4976376;28;20497;-59
2022/06/06 10:39:09;;;;;;;3.65;1.55;;;;;;;;;;5010475;28;20113;-59
2022/06/06 10:41:42;;;;;;;1.98;1.45;;;;;;;;;;5021660;28;20041;-59
2022/06/06 10:44:53;;;;;;;2.72;1.48;;;;;;;;;;5028731;28;20022;-59
2022/06/06 10:47:37;;;;;;;1.88;1.50;;;;;;;;;;5030028;28;20061;-59
2022/06/06 10:50:12;;;;;;;2.90;1.20;;;;;;;;;;5029286;28;20514;-59
2022/06/06 10:52:46;;;;;;;2.42;1.20;;;;;;;;;;5030514;28;20390;-60
2022/06/06 10:55:32;;;;;;;2.28;1.50;;;;;;;;;;5030651;28;20120;-61
2022/06/06 10:57:57;;;;;;;2.13;1.35;;;;;;;;;;5030317;28;20107;-61
2022/06/06 11:00:46;;;;;;;3.35;1.70;;;;;;;;;;5030091;28;20080;-59
2022/06/06 11:03:49;;;;;;;2.58;1.40;;;;;;;;;;5030979;28;20045;-59
2022/06/06 11:06:51;;;;;;;2.30;1.33;;;;;;;;;;5031973;28;20364;-59
2022/06/06 11:09:42;;;;;;;3.13;1.40;;;;;;;;;;5033340;28;20075;-59
2022/06/06 11:12:16;;;;;;;;;;;;;;;;;;5032586;28;20040;-59
2022/06/06 11:14:46;;;;;;;3.97;1.52;;;;;;;;;;5033434;28;19940;-59
2022/06/06 11:17:50;;;;;;;1.67;1.38;;;;;;;;;;5034397;28;20041;-59
2022/06/06 11:20:48;;;;;;;5.75;1.80;;;;;;;;;;5038327;28;20410;-60
2022/06/06 11:23:24;;;;;;;1.50;1.40;;;;;;;;;;4991986;28;20073;-60
2022/06/06 11:25:59;;;;;;;1.05;0.95;;;;;;;;;;5014248;28;20034;-60
2022/06/06 11:28:41;;;;;;;1.33;0.80;;;;;;;;;;5015015;28;20026;-59
2022/06/06 11:31:40;;;;;;;0.90;0.90;;;;;;;;;;5019902;28;20029;-60
2022/06/06 11:34:37;;;;;;;2.72;0.80;;;;;;;;;;5033605;28;20462;-60
2022/06/06 11:37:29;;;;;;;1.88;1.10;;;;;;;;;;5031344;28;20108;-59
2022/06/06 11:40:13;;;;;;;3.55;1.00;;;;;;;;;;5033651;28;20037;-59
2022/06/06 11:42:47;;;;;;;1.88;1.10;;;;;;;;;;5034658;28;20466;-59
2022/06/06 11:45:29;;;;;;;2.15;1.30;;;;;;;;;;5033200;28;20118;-59
2022/06/06 11:48:16;;;;;;;2.42;1.30;;;;;;;;;;5026595;28;20037;-60
2022/06/06 11:51:20;;;;;;;2.38;1.20;;;;;;;;;;5033183;28;20108;-59
2022/06/06 11:54:03;;;;;;;2.00;1.27;;;;;;;;;;5033726;28;20044;-59
2022/06/06 11:56:53;;;;;;;1.52;1.15;;;;;;;;;;5031159;28;20143;-64
2022/06/06 11:59:55;;;;;;;2.03;1.27;;;;;;;;;;5033073;28;20096;-61
2022/06/06 12:02:26;;;;;;;3.05;1.38;;;;;;;;;;5012723;28;20037;-60
2022/06/06 12:05:36;;;;;;;1.73;1.08;;;;;;;;;;5015136;28;20034;-61
2022/06/06 12:08:35;;;;;;;1.30;1.17;;;;;;;;;;4952073;28;20054;-60
2022/06/06 12:11:31;;;;;;;2.83;1.20;;;;;;;;;;5005002;28;20554;-60
2022/06/06 12:14:30;;;;;;;3.08;1.60;;;;;;;;;;5013042;28;20113;-61
2022/06/06 12:17:24;;;;;;;3.88;1.42;;;;;;;;;;5030653;28;20108;-60
2022/06/06 12:20:28;;;;;;;4.65;1.67;;;;;;;;;;5022273;28;20053;-60
2022/06/06 12:23:08;;;;;;;3.17;1.55;;;;;;;;;;5012984;28;20412;-60
2022/06/06 12:25:34;;;;;;;3.03;2.00;;;;;;;;;;5028716;28;20041;-61
2022/06/06 12:27:59;;;;;;;4.65;1.90;;;;;;;;;;5032079;28;20347;-62
2022/06/06 12:30:37;;;;;;;6.07;1.88;;;;;;;;;;5030541;28;20444;-61
2022/06/06 12:33:25;;;;;;;4.47;1.70;;;;;;;;;;5015538;28;20034;-63
2022/06/06 12:35:57;;;;;;;4.43;1.83;;;;;;;;;;5029860;28;20115;-62
2022/06/06 12:38:44;;;;;;;5.40;1.88;;;;;;;;;;5022221;28;20034;-63
2022/06/06 12:41:32;;;;;;;2.92;1.60;;;;;;;;;;5032301;28;20045;-63
2022/06/06 12:44:21;;;;;;;2.25;1.40;;;;;;;;;;5028111;28;20112;-63
2022/06/06 12:47:05;;;;;;;1.40;1.30;;;;;;;;;;5028111;28;20042;-63
2022/06/06 12:49:47;;;;;;;6.50;1.60;;;;;;;;;;5032460;28;20039;-63
2022/06/06 12:52:39;;;;;;;2.53;1.38;;;;;;;;;;5030452;28;20116;-61
2022/06/06 12:58:22;;;;;;;1.98;1.30;;;;;;;;;;5029409;28;20037;-59
2022/06/06 13:04:00;;;;;;;3.05;1.40;;;;;;;;;;5030719;28;20149;-60
2022/06/06 13:06:26;;;;;;;7.88;1.70;;;;;;;;;;5013208;28;20115;-59
2022/06/06 13:09:14;;;;;;;2.42;1.58;;;;;;;;;;5024180;28;20474;-60
2022/06/06 13:11:51;;;;;;;2.78;1.52;;;;;;;;;;5023987;28;20034;-60
2022/06/06 13:14:40;;;;;;;2.13;1.45;;;;;;;;;;5026333;28;20446;-60
2022/06/06 13:17:35;;;;;;;1.90;1.38;;;;;;;;;;5031496;28;20057;-60
2022/06/06 13:20:16;;;;;;;2.47;1.70;;;;;;;;;;5011973;28;20026;-60
2022/06/06 13:23:12;;;;;;;2.03;1.50;;;;;;;;;;5024130;28;20083;-60
2022/06/06 13:26:01;;;;;;;2.33;1.50;;;;;;;;;;5032470;28;20462;-59
2022/06/06 13:28:30;;;;;;;4.38;1.77;;;;;;;;;;5013468;28;20120;-60
2022/06/06 13:31:34;;;;;;;3.25;1.35;;;;;;;;;;5030440;28;20037;-60
2022/06/06 13:34:16;;;;;;;2.92;1.40;;;;;;;;;;5030361;28;20091;-60
2022/06/06 13:36:49;;;;;;;2.97;1.90;;;;;;;;;;5027572;28;20033;-60
2022/06/06 13:39:44;;;;;;;6.80;1.90;;;;;;;;;;5031379;28;20052;-60
2022/06/06 13:42:48;;;;;;;2.13;1.60;;;;;;;;;;5028849;28;20282;-60
2022/06/06 13:45:41;;;;;;;4.63;1.70;;;;;;;;;;4963021;28;20038;-60
2022/06/06 13:48:37;;;;;;;3.42;1.40;;;;;;;;;;5030715;28;20041;-60
2022/06/06 13:51:20;;;;;;;2.00;1.40;;;;;;;;;;5031204;28;20127;-60
2022/06/06 13:53:49;;;;;;;2.28;1.50;;;;;;;;;;5013442;28;20055;-60
2022/06/06 13:56:42;;;;;;;1.77;1.58;;;;;;;;;;5031633;28;20102;-60
2022/06/06 13:59:25;;;;;;;1.73;1.38;;;;;;;;;;5029636;28;20033;-60
2022/06/06 14:02:00;;;;;;;2.08;1.40;;;;;;;;;;5020241;28;20079;-60
2022/06/06 14:05:03;;;;;;;3.58;1.33;;;;;;;;;;5031290;28;20068;-59
2022/06/06 14:07:43;;;;;;;2.40;1.45;;;;;;;;;;5029959;28;20371;-58
2022/06/06 14:10:12;;;;;;;4.18;1.40;;;;;;;;;;5030747;28;20041;-55
2022/06/06 14:12:51;;;;;;;1.80;1.30;;;;;;;;;;5032103;28;20061;-57
2022/06/06 14:15:20;;;;;;;2.65;1.40;;;;;;;;;;5030073;28;20160;-58
2022/06/06 14:17:51;;;;;;;3.25;1.40;;;;;;;;;;5030136;28;20429;-57
2022/06/06 14:20:22;;;;;;;2.35;1.20;;;;;;;;;;5026388;28;20030;-58
2022/06/06 14:22:49;;;;;;;2.28;1.20;;;;;;;;;;5021943;28;20037;-58
2022/06/06 14:25:15;;;;;;;2.40;1.33;;;;;;;;;;5030196;28;20037;-58
2022/06/06 14:27:42;;;;;;;3.22;1.30;;;;;;;;;;5031596;28;20129;-57
2022/06/06 14:30:13;;;;;;;4.22;1.23;;;;;;;;;;5028029;28;20037;-56
2022/06/06 14:32:41;;;;;;;4.45;1.30;;;;;;;;;;5029011;28;20501;-57
2022/06/06 14:35:25;;;;;;;1.38;1.15;;;;;;;;;;5028583;28;20076;-58
2022/06/06 14:37:51;;;;;;;2.08;1.30;;;;;;;;;;5030149;28;20192;-56
2022/06/06 14:40:40;;;;;;;2.67;1.25;;;;;;;;;;5031118;28;20439;-58
2022/06/06 14:43:06;;;;;;;3.03;1.30;;;;;;;;;;5032177;28;20036;-59
2022/06/06 14:45:37;;;;;;;2.17;1.23;;;;;;;;;;5021941;28;20021;-58
2022/06/06 14:48:10;;;;;;;3.42;1.48;;;;;;;;;;5034799;28;20037;-58
2022/06/06 14:50:50;;;;;;;2.47;1.20;;;;;;;;;;5029751;28;20148;-57
2022/06/06 14:53:45;;;;;;;2.30;1.30;;;;;;;;;;5030851;28;20117;-59
2022/06/06 14:56:20;;;;;;;2.40;1.30;;;;;;;;;;5032297;28;20056;-56
2022/06/06 14:59:14;;;;;;;3.97;1.50;;;;;;;;;;5032235;28;20478;-58
2022/06/06 15:01:41;;;;;;;2.38;1.25;;;;;;;;;;5031959;28;20037;-58
2022/06/06 15:04:23;;;;;;;3.13;1.40;;;;;;;;;;5016638;28;20105;-60
2022/06/06 15:06:52;;;;;;;2.88;1.20;;;;;;;;;;5032639;28;20101;-59
2022/06/06 15:09:38;;;;;;;1.42;1.10;;;;;;;;;;5033543;28;20094;-57
2022/06/06 15:12:09;;;;;;;2.10;1.10;;;;;;;;;;5033043;28;20450;-58
2022/06/06 15:14:36;;;;;;;;;;;;;;;;;;5034374;28;20037;-58
2022/06/06 15:17:10;;;;;;;3.05;0.93;;;;;;;;;;5032645;28;19909;-53
2022/06/06 15:19:38;;;;;;;4.03;1.13;;;;;;;;;;5032675;28;20056;-55
2022/06/06 15:22:05;;;;;;;5.07;1.30;;;;;;;;;;5034167;28;20037;-57
2022/06/06 15:24:43;;;;;;;4.80;1.52;;;;;;;;;;5032138;28;20068;-54
2022/06/06 15:27:26;;;;;;;2.03;1.20;;;;;;;;;;5001478;28;20034;-55
2022/06/06 15:30:10;;;;;;;1.50;1.20;;;;;;;;;;5031993;28;20474;-58
2022/06/06 15:32:45;;;;;;;5.15;1.25;;;;;;;;;;5032520;28;20067;-58
2022/06/06 15:35:35;;;;;;;1.88;1.48;;;;;;;;;;5036258;28;20053;-59
2022/06/06 15:38:12;;;;;;;2.83;1.30;;;;;;;;;;5025607;28;20533;-58
2022/06/06 15:41:27;;;;;;;2.42;1.17;;;;;;;;;;5031731;28;20634;-58
2022/06/06 15:44:34;;;;;;;2.60;1.30;;;;;;;;;;5028480;28;20171;-58
2022/06/06 15:47:10;;;;;;;1.80;1.08;;;;;;;;;;5033110;28;20034;-60
2022/06/06 15:50:02;;;;;;;2.22;1.02;;;;;;;;;;5031914;28;20112;-59
2022/06/06 15:52:54;;;;;;;1.80;1.17;;;;;;;;;;5015299;28;20112;-59
2022/06/06 15:55:57;;;;;;;2.42;2.10;;;;;;;;;;5012086;28;20520;-58
2022/06/06 15:58:47;;;;;;;4.38;1.23;;;;;;;;;;5031748;28;20033;-60
2022/06/06 16:01:28;;;;;;;1.50;1.20;;;;;;;;;;5031502;28;20061;-57
2022/06/06 16:04:11;;;;;;;7.82;1.30;;;;;;;;;;5032836;28;20116;-60
2022/06/06 16:06:37;;;;;;;2.42;1.30;;;;;;;;;;5032380;28;20505;-60
2022/06/06 16:09:11;;;;;;;2.03;1.30;;;;;;;;;;5033025;28;20120;-58
2022/06/06 16:12:03;;;;;;;1.38;1.20;;;;;;;;;;5033663;28;20030;-58
2022/06/06 16:14:51;;;;;;;1.65;1.10;;;;;;;;;;5032030;28;20021;-59
2022/06/06 16:17:42;;;;;;;5.13;1.30;;;;;;;;;;5029337;28;20112;-59